This is the latest recevied weather packets stored in our database for station/object EA5HRE-13. If no packets are shown the sender has not sent any weather packets the latest 10 day(s).
| Time | Temp. | Humidity | Pressure | Rain* | Wind** | Luminosity | Snow |
|---|---|---|---|---|---|---|---|
| 1787898025 | 23.33° C | 52% | 1017 hPa | 0 mm | - | - | - |
| 1787897125 | 23.33° C | 83% | 1016.8 hPa | 0 mm | - | - | - |
| 1787896224 | 23.89° C | 82% | 1016.8 hPa | 0 mm | - | - | - |
| 1787895323 | 23.89° C | 81% | 1016.9 hPa | 0 mm | - | - | - |
| 1787894423 | 23.89° C | 80% | 1017.1 hPa | 0 mm | - | - | - |
| 1787893523 | 23.89° C | 79% | 1017.1 hPa | 0 mm | - | - | - |
| 1787892622 | 23.89° C | 80% | 1016.9 hPa | 0 mm | - | - | - |
| 1787891721 | 23.89° C | 81% | 1016.7 hPa | 0 mm | - | - | - |
| 1787890821 | 23.89° C | 82% | 1016.4 hPa | 0 mm | - | - | - |
| 1787889921 | 23.89° C | 81% | 1016.2 hPa | 0 mm | - | - | - |
| 1787889021 | 24.44° C | 43% | 1017 hPa | 0 mm | - | - | - |
| 1787888120 | 25° C | 41% | 1016.7 hPa | 0 mm | - | - | - |
| 1787887220 | 25° C | 40% | 1016.3 hPa | 0 mm | - | - | - |
| 1787886319 | 25° C | 39% | 1016.1 hPa | 0 mm | - | - | - |
| 1787885419 | 25.56° C | 38% | 1016 hPa | 0 mm | - | - | - |
| 1787884518 | 25.56° C | 38% | 1015.9 hPa | 0 mm | - | - | - |
| 1787883618 | 25.56° C | 38% | 1015.8 hPa | 0 mm | - | - | - |
| 1787882717 | 25.56° C | 38% | 1015.8 hPa | 0 mm | - | - | - |
| 1787880916 | 26.11° C | 38% | 1015.7 hPa | 0 mm | - | - | - |
| 1787879115 | 26.67° C | 43% | 1015.6 hPa | 0 mm | - | - | - |
| 1787878215 | 26.67° C | 51% | 1015.7 hPa | 0 mm | - | - | - |
| 1787877315 | 26.11° C | 61% | 1015.8 hPa | 0 mm | - | - | - |
| 1787876414 | 25.56° C | 72% | 1015.9 hPa | 0 mm | - | - | - |
| 1787875514 | 25.56° C | 79% | 1015.9 hPa | 0 mm | - | - | - |
| 1787874613 | 25.56° C | 82% | 1015.7 hPa | 0 mm | - | - | - |
* Rain latest hour (hover to see other rain measurements)
** Current wind speed in m/s (hover to see current wind gust speed)